sensor_id;sensor_type;location;lat;lon;timestamp;pressure;altitude;pressure_sealevel;temperature;humidity
12219;BME280;6172;42.646;23.344;2023-03-18T00:01:22;95008.16;;;-0.24;100.00
12219;BME280;6172;42.646;23.344;2023-03-18T00:03:49;94982.53;;;-0.49;100.00
12219;BME280;6172;42.646;23.344;2023-03-18T00:06:18;95003.94;;;-0.49;100.00
12219;BME280;6172;42.646;23.344;2023-03-18T00:08:48;94981.22;;;-0.55;100.00
12219;BME280;6172;42.646;23.344;2023-03-18T00:11:16;94988.44;;;-0.56;100.00
12219;BME280;6172;42.646;23.344;2023-03-18T00:13:44;94988.13;;;-0.66;100.00
12219;BME280;6172;42.646;23.344;2023-03-18T00:16:12;94996.47;;;-0.56;100.00
12219;BME280;6172;42.646;23.344;2023-03-18T00:18:40;94997.13;;;-0.71;100.00
12219;BME280;6172;42.646;23.344;2023-03-18T00:21:08;95003.53;;;-0.75;100.00
12219;BME280;6172;42.646;23.344;2023-03-18T00:23:36;94992.34;;;-0.77;100.00
12219;BME280;6172;42.646;23.344;2023-03-18T00:26:05;94991.91;;;-0.79;100.00
12219;BME280;6172;42.646;23.344;2023-03-18T00:28:33;94983.88;;;-1.03;100.00
12219;BME280;6172;42.646;23.344;2023-03-18T00:31:03;94993.69;;;-0.95;100.00
12219;BME280;6172;42.646;23.344;2023-03-18T00:33:33;94974.38;;;-1.01;100.00
12219;BME280;6172;42.646;23.344;2023-03-18T00:36:00;94980.66;;;-0.97;100.00
12219;BME280;6172;42.646;23.344;2023-03-18T00:38:27;94987.56;;;-0.96;100.00
12219;BME280;6172;42.646;23.344;2023-03-18T00:40:54;94976.06;;;-0.96;100.00
12219;BME280;6172;42.646;23.344;2023-03-18T00:43:30;94971.19;;;-0.94;100.00
12219;BME280;6172;42.646;23.344;2023-03-18T00:46:00;94959.34;;;-0.93;100.00
12219;BME280;6172;42.646;23.344;2023-03-18T00:48:28;94965.84;;;-0.94;100.00
12219;BME280;6172;42.646;23.344;2023-03-18T00:50:55;94957.47;;;-0.93;100.00
12219;BME280;6172;42.646;23.344;2023-03-18T00:53:23;94955.34;;;-0.99;100.00
12219;BME280;6172;42.646;23.344;2023-03-18T00:55:51;94949.53;;;-0.89;100.00
12219;BME280;6172;42.646;23.344;2023-03-18T00:58:18;94954.44;;;-0.79;100.00
12219;BME280;6172;42.646;23.344;2023-03-18T01:00:47;94941.31;;;-0.84;100.00
12219;BME280;6172;42.646;23.344;2023-03-18T01:03:14;94940.72;;;-0.78;100.00
12219;BME280;6172;42.646;23.344;2023-03-18T01:05:41;94940.63;;;-0.81;100.00
12219;BME280;6172;42.646;23.344;2023-03-18T01:08:08;94946.66;;;-0.84;100.00
12219;BME280;6172;42.646;23.344;2023-03-18T01:10:35;94939.53;;;-1.04;100.00
12219;BME280;6172;42.646;23.344;2023-03-18T01:13:03;94937.28;;;-1.02;100.00
12219;BME280;6172;42.646;23.344;2023-03-18T01:15:30;94947.31;;;-0.99;100.00
12219;BME280;6172;42.646;23.344;2023-03-18T01:17:59;94934.50;;;-1.06;100.00
12219;BME280;6172;42.646;23.344;2023-03-18T01:20:26;94925.94;;;-1.11;100.00
12219;BME280;6172;42.646;23.344;2023-03-18T01:22:53;94928.16;;;-1.13;100.00
12219;BME280;6172;42.646;23.344;2023-03-18T01:25:21;94929.72;;;-1.24;100.00
12219;BME280;6172;42.646;23.344;2023-03-18T01:27:48;94938.91;;;-1.34;100.00
12219;BME280;6172;42.646;23.344;2023-03-18T01:30:15;94933.56;;;-1.34;100.00
12219;BME280;6172;42.646;23.344;2023-03-18T01:32:42;94930.47;;;-1.24;100.00
12219;BME280;6172;42.646;23.344;2023-03-18T01:35:11;94931.38;;;-1.20;100.00
12219;BME280;6172;42.646;23.344;2023-03-18T01:37:38;94932.34;;;-1.48;100.00
12219;BME280;6172;42.646;23.344;2023-03-18T01:40:07;94930.91;;;-1.46;100.00
12219;BME280;6172;42.646;23.344;2023-03-18T01:42:34;94931.00;;;-1.42;100.00
12219;BME280;6172;42.646;23.344;2023-03-18T01:45:13;94925.44;;;-1.49;100.00
12219;BME280;6172;42.646;23.344;2023-03-18T01:47:44;94925.66;;;-1.42;100.00
12219;BME280;6172;42.646;23.344;2023-03-18T01:50:19;94917.31;;;-1.41;100.00
12219;BME280;6172;42.646;23.344;2023-03-18T01:52:49;94912.63;;;-1.44;100.00
12219;BME280;6172;42.646;23.344;2023-03-18T01:55:21;94916.22;;;-1.40;100.00
12219;BME280;6172;42.646;23.344;2023-03-18T01:57:50;94928.56;;;-1.35;100.00
12219;BME280;6172;42.646;23.344;2023-03-18T02:00:18;94918.13;;;-1.28;100.00
12219;BME280;6172;42.646;23.344;2023-03-18T02:02:47;94915.19;;;-1.35;100.00
12219;BME280;6172;42.646;23.344;2023-03-18T02:05:19;94923.31;;;-1.44;100.00
12219;BME280;6172;42.646;23.344;2023-03-18T02:07:47;94924.34;;;-1.36;100.00
12219;BME280;6172;42.646;23.344;2023-03-18T02:10:16;94919.88;;;-1.32;100.00
12219;BME280;6172;42.646;23.344;2023-03-18T02:12:48;94921.22;;;-1.38;100.00
12219;BME280;6172;42.646;23.344;2023-03-18T02:15:18;94917.31;;;-1.41;100.00
12219;BME280;6172;42.646;23.344;2023-03-18T02:17:50;94911.44;;;-1.34;100.00
12219;BME280;6172;42.646;23.344;2023-03-18T02:20:28;94914.44;;;-1.36;100.00
12219;BME280;6172;42.646;23.344;2023-03-18T02:23:04;94910.06;;;-1.52;100.00
12219;BME280;6172;42.646;23.344;2023-03-18T02:25:38;94916.81;;;-1.79;100.00
12219;BME280;6172;42.646;23.344;2023-03-18T02:28:12;94916.16;;;-1.76;100.00
12219;BME280;6172;42.646;23.344;2023-03-18T02:30:43;94916.38;;;-1.69;100.00
12219;BME280;6172;42.646;23.344;2023-03-18T02:33:13;94921.25;;;-1.83;100.00
12219;BME280;6172;42.646;23.344;2023-03-18T02:35:43;94915.34;;;-1.77;100.00
12219;BME280;6172;42.646;23.344;2023-03-18T02:38:11;94919.38;;;-1.71;100.00
12219;BME280;6172;42.646;23.344;2023-03-18T02:40:40;94905.47;;;-1.76;100.00
12219;BME280;6172;42.646;23.344;2023-03-18T02:43:18;94918.50;;;-1.75;100.00
12219;BME280;6172;42.646;23.344;2023-03-18T02:45:54;94904.66;;;-1.77;100.00
12219;BME280;6172;42.646;23.344;2023-03-18T02:48:26;94908.38;;;-1.69;100.00
12219;BME280;6172;42.646;23.344;2023-03-18T02:50:57;94909.16;;;-1.56;100.00
12219;BME280;6172;42.646;23.344;2023-03-18T02:53:25;94901.38;;;-1.61;100.00
12219;BME280;6172;42.646;23.344;2023-03-18T02:55:53;94908.50;;;-1.53;100.00
12219;BME280;6172;42.646;23.344;2023-03-18T02:58:21;94908.97;;;-1.51;100.00
12219;BME280;6172;42.646;23.344;2023-03-18T03:00:48;94911.31;;;-1.50;100.00
12219;BME280;6172;42.646;23.344;2023-03-18T03:03:16;94912.72;;;-1.52;100.00
12219;BME280;6172;42.646;23.344;2023-03-18T03:05:43;94893.13;;;-1.56;100.00
12219;BME280;6172;42.646;23.344;2023-03-18T03:08:10;94901.69;;;-1.51;100.00
12219;BME280;6172;42.646;23.344;2023-03-18T03:10:37;94904.38;;;-1.96;100.00
12219;BME280;6172;42.646;23.344;2023-03-18T03:13:08;94920.31;;;-1.99;100.00
12219;BME280;6172;42.646;23.344;2023-03-18T03:15:39;94911.03;;;-2.02;100.00
12219;BME280;6172;42.646;23.344;2023-03-18T03:18:07;94924.38;;;-2.02;100.00
12219;BME280;6172;42.646;23.344;2023-03-18T03:20:35;94918.38;;;-1.99;100.00
12219;BME280;6172;42.646;23.344;2023-03-18T03:23:05;94925.09;;;-1.93;100.00
12219;BME280;6172;42.646;23.344;2023-03-18T03:25:34;94916.44;;;-1.90;100.00
12219;BME280;6172;42.646;23.344;2023-03-18T03:28:02;94924.34;;;-1.81;100.00
12219;BME280;6172;42.646;23.344;2023-03-18T03:30:29;94918.44;;;-1.87;100.00
12219;BME280;6172;42.646;23.344;2023-03-18T03:32:58;94917.97;;;-1.89;100.00
12219;BME280;6172;42.646;23.344;2023-03-18T03:35:27;94913.28;;;-1.92;100.00
12219;BME280;6172;42.646;23.344;2023-03-18T03:37:55;94922.25;;;-1.76;100.00
12219;BME280;6172;42.646;23.344;2023-03-18T03:40:24;94923.94;;;-1.71;100.00
12219;BME280;6172;42.646;23.344;2023-03-18T03:42:52;94928.19;;;-1.70;100.00
12219;BME280;6172;42.646;23.344;2023-03-18T03:45:19;94929.03;;;-1.78;100.00
12219;BME280;6172;42.646;23.344;2023-03-18T03:47:46;94917.78;;;-2.16;100.00
12219;BME280;6172;42.646;23.344;2023-03-18T03:50:17;94930.41;;;-2.05;100.00
12219;BME280;6172;42.646;23.344;2023-03-18T03:52:45;94923.88;;;-1.95;100.00
12219;BME280;6172;42.646;23.344;2023-03-18T03:55:15;94917.75;;;-1.96;100.00
12219;BME280;6172;42.646;23.344;2023-03-18T03:57:46;94926.59;;;-1.83;100.00
12219;BME280;6172;42.646;23.344;2023-03-18T04:00:14;94929.84;;;-1.78;100.00
12219;BME280;6172;42.646;23.344;2023-03-18T04:02:44;94925.16;;;-1.81;100.00
12219;BME280;6172;42.646;23.344;2023-03-18T04:05:13;94913.97;;;-1.95;100.00
12219;BME280;6172;42.646;23.344;2023-03-18T04:07:43;94926.06;;;-1.97;100.00
12219;BME280;6172;42.646;23.344;2023-03-18T04:10:12;94929.06;;;-1.99;100.00
12219;BME280;6172;42.646;23.344;2023-03-18T04:12:40;94934.91;;;-2.17;100.00
12219;BME280;6172;42.646;23.344;2023-03-18T04:15:11;94943.41;;;-2.65;100.00
12219;BME280;6172;42.646;23.344;2023-03-18T04:17:40;94939.91;;;-2.77;100.00
12219;BME280;6172;42.646;23.344;2023-03-18T04:20:09;94962.13;;;-2.94;100.00
12219;BME280;6172;42.646;23.344;2023-03-18T04:22:37;94951.53;;;-2.82;100.00
12219;BME280;6172;42.646;23.344;2023-03-18T04:25:08;94964.22;;;-2.79;100.00
12219;BME280;6172;42.646;23.344;2023-03-18T04:27:49;94970.94;;;-3.02;100.00
12219;BME280;6172;42.646;23.344;2023-03-18T04:30:18;94977.19;;;-2.98;100.00
12219;BME280;6172;42.646;23.344;2023-03-18T04:32:52;94971.94;;;-2.86;100.00
12219;BME280;6172;42.646;23.344;2023-03-18T04:35:25;94977.66;;;-2.67;100.00
12219;BME280;6172;42.646;23.344;2023-03-18T04:37:55;94981.59;;;-2.44;100.00
12219;BME280;6172;42.646;23.344;2023-03-18T04:40:26;94964.94;;;-2.41;100.00
12219;BME280;6172;42.646;23.344;2023-03-18T04:42:57;94971.97;;;-2.36;100.00
12219;BME280;6172;42.646;23.344;2023-03-18T04:45:34;94976.63;;;-2.33;100.00
12219;BME280;6172;42.646;23.344;2023-03-18T04:48:04;94984.75;;;-2.50;100.00
12219;BME280;6172;42.646;23.344;2023-03-18T04:50:48;94992.38;;;-2.40;100.00
12219;BME280;6172;42.646;23.344;2023-03-18T04:53:20;94993.69;;;-2.26;100.00
12219;BME280;6172;42.646;23.344;2023-03-18T04:55:51;94979.25;;;-2.25;100.00
12219;BME280;6172;42.646;23.344;2023-03-18T04:58:24;94986.66;;;-2.30;100.00
12219;BME280;6172;42.646;23.344;2023-03-18T05:00:53;94988.94;;;-2.20;100.00
12219;BME280;6172;42.646;23.344;2023-03-18T05:03:21;94988.88;;;-2.12;100.00
12219;BME280;6172;42.646;23.344;2023-03-18T05:05:50;94972.81;;;-2.24;100.00
12219;BME280;6172;42.646;23.344;2023-03-18T05:08:18;94984.31;;;-2.52;100.00
12219;BME280;6172;42.646;23.344;2023-03-18T05:10:46;94979.09;;;-2.49;100.00
12219;BME280;6172;42.646;23.344;2023-03-18T05:13:16;94986.34;;;-2.29;100.00
12219;BME280;6172;42.646;23.344;2023-03-18T05:15:47;94973.97;;;-2.13;100.00
12219;BME280;6172;42.646;23.344;2023-03-18T05:18:15;94979.31;;;-2.13;100.00
12219;BME280;6172;42.646;23.344;2023-03-18T05:20:46;94981.31;;;-2.10;100.00
12219;BME280;6172;42.646;23.344;2023-03-18T05:23:14;94959.81;;;-1.93;100.00
12219;BME280;6172;42.646;23.344;2023-03-18T05:25:47;94959.06;;;-1.93;100.00
12219;BME280;6172;42.646;23.344;2023-03-18T05:28:32;94969.81;;;-1.69;100.00
12219;BME280;6172;42.646;23.344;2023-03-18T05:31:04;94962.28;;;-1.55;100.00
12219;BME280;6172;42.646;23.344;2023-03-18T05:33:35;94963.13;;;-1.75;100.00
12219;BME280;6172;42.646;23.344;2023-03-18T05:36:07;94954.28;;;-1.88;100.00
12219;BME280;6172;42.646;23.344;2023-03-18T05:38:34;94963.06;;;-1.54;100.00
12219;BME280;6172;42.646;23.344;2023-03-18T05:41:01;94967.53;;;-1.46;100.00
12219;BME280;6172;42.646;23.344;2023-03-18T05:43:30;94962.84;;;-1.49;100.00
12219;BME280;6172;42.646;23.344;2023-03-18T05:45:57;94966.09;;;-1.44;100.00
12219;BME280;6172;42.646;23.344;2023-03-18T05:48:25;94965.13;;;-1.27;100.00
12219;BME280;6172;42.646;23.344;2023-03-18T05:50:52;94969.78;;;-0.40;100.00
12219;BME280;6172;42.646;23.344;2023-03-18T05:53:19;94965.81;;;1.73;100.00
12219;BME280;6172;42.646;23.344;2023-03-18T05:55:48;94947.75;;;4.44;100.00
12219;BME280;6172;42.646;23.344;2023-03-18T05:58:15;94944.91;;;5.03;100.00
12219;BME280;6172;42.646;23.344;2023-03-18T06:00:44;94944.13;;;6.00;84.55
12219;BME280;6172;42.646;23.344;2023-03-18T06:03:11;94938.38;;;7.50;82.28
12219;BME280;6172;42.646;23.344;2023-03-18T06:05:38;94950.66;;;8.36;64.67
12219;BME280;6172;42.646;23.344;2023-03-18T06:08:05;94950.78;;;9.04;56.29
12219;BME280;6172;42.646;23.344;2023-03-18T06:10:32;94957.53;;;8.72;55.32
12219;BME280;6172;42.646;23.344;2023-03-18T06:12:59;94945.25;;;10.51;49.88
12219;BME280;6172;42.646;23.344;2023-03-18T06:15:26;94957.75;;;10.82;47.76
12219;BME280;6172;42.646;23.344;2023-03-18T06:17:55;94951.16;;;9.06;49.41
12219;BME280;6172;42.646;23.344;2023-03-18T06:20:23;94958.53;;;9.06;50.80
12219;BME280;6172;42.646;23.344;2023-03-18T06:22:50;94964.22;;;8.36;51.04
12219;BME280;6172;42.646;23.344;2023-03-18T06:25:19;94956.97;;;7.69;53.56
12219;BME280;6172;42.646;23.344;2023-03-18T06:27:48;94958.88;;;7.09;55.30
12219;BME280;6172;42.646;23.344;2023-03-18T06:30:16;94951.00;;;8.59;51.90
12219;BME280;6172;42.646;23.344;2023-03-18T06:32:44;94948.63;;;9.36;48.96
12219;BME280;6172;42.646;23.344;2023-03-18T06:35:13;94946.16;;;9.56;47.93
12219;BME280;6172;42.646;23.344;2023-03-18T06:37:41;94937.59;;;9.57;47.29
12219;BME280;6172;42.646;23.344;2023-03-18T06:40:09;94938.00;;;8.98;47.88
12219;BME280;6172;42.646;23.344;2023-03-18T06:42:36;94930.88;;;8.46;49.87
12219;BME280;6172;42.646;23.344;2023-03-18T06:45:04;94927.31;;;8.59;48.10
12219;BME280;6172;42.646;23.344;2023-03-18T06:47:31;94919.47;;;9.84;46.91
12219;BME280;6172;42.646;23.344;2023-03-18T06:49:58;94920.88;;;10.40;44.37
12219;BME280;6172;42.646;23.344;2023-03-18T06:52:27;94919.78;;;10.34;43.90
12219;BME280;6172;42.646;23.344;2023-03-18T06:54:54;94928.75;;;9.94;45.02
12219;BME280;6172;42.646;23.344;2023-03-18T06:57:21;94927.00;;;10.81;43.95
12219;BME280;6172;42.646;23.344;2023-03-18T06:59:48;94926.50;;;9.78;45.72
12219;BME280;6172;42.646;23.344;2023-03-18T07:02:15;94924.09;;;9.43;46.68
12219;BME280;6172;42.646;23.344;2023-03-18T07:04:43;94917.53;;;9.85;45.79
12219;BME280;6172;42.646;23.344;2023-03-18T07:07:10;94928.31;;;9.99;46.37
12219;BME280;6172;42.646;23.344;2023-03-18T07:09:42;94916.09;;;9.70;46.32
12219;BME280;6172;42.646;23.344;2023-03-18T07:12:09;94906.44;;;9.62;47.69
12219;BME280;6172;42.646;23.344;2023-03-18T07:14:38;94926.44;;;8.83;48.04
12219;BME280;6172;42.646;23.344;2023-03-18T07:17:05;94920.50;;;7.98;50.79
12219;BME280;6172;42.646;23.344;2023-03-18T07:19:32;94923.41;;;8.67;50.75
12219;BME280;6172;42.646;23.344;2023-03-18T07:22:00;94914.09;;;8.61;51.31
12219;BME280;6172;42.646;23.344;2023-03-18T07:24:27;94913.53;;;8.98;51.29
12219;BME280;6172;42.646;23.344;2023-03-18T07:26:58;94921.75;;;8.87;50.20
12219;BME280;6172;42.646;23.344;2023-03-18T07:29:25;94924.31;;;9.12;51.09
12219;BME280;6172;42.646;23.344;2023-03-18T07:31:52;94928.31;;;8.93;51.93
12219;BME280;6172;42.646;23.344;2023-03-18T07:34:19;94922.38;;;9.09;51.36
12219;BME280;6172;42.646;23.344;2023-03-18T07:36:47;94930.94;;;9.62;49.42
12219;BME280;6172;42.646;23.344;2023-03-18T07:39:14;94930.84;;;8.49;51.38
12219;BME280;6172;42.646;23.344;2023-03-18T07:41:43;94932.44;;;8.43;52.66
12219;BME280;6172;42.646;23.344;2023-03-18T07:44:26;94926.31;;;7.93;54.85
12219;BME280;6172;42.646;23.344;2023-03-18T07:46:53;94923.97;;;8.02;57.73
12219;BME280;6172;42.646;23.344;2023-03-18T07:49:20;94941.31;;;8.51;56.60
12219;BME280;6172;42.646;23.344;2023-03-18T07:51:48;94935.19;;;8.19;55.83
12219;BME280;6172;42.646;23.344;2023-03-18T07:54:15;94936.31;;;8.25;56.36
12219;BME280;6172;42.646;23.344;2023-03-18T07:56:42;94937.56;;;8.02;57.87
12219;BME280;6172;42.646;23.344;2023-03-18T07:59:09;94937.53;;;8.09;59.99
12219;BME280;6172;42.646;23.344;2023-03-18T08:01:38;94936.72;;;8.27;57.58
12219;BME280;6172;42.646;23.344;2023-03-18T08:04:05;94932.03;;;8.38;56.23
12219;BME280;6172;42.646;23.344;2023-03-18T08:06:33;94932.97;;;7.36;59.73
12219;BME280;6172;42.646;23.344;2023-03-18T08:09:00;94931.41;;;7.74;58.75
12219;BME280;6172;42.646;23.344;2023-03-18T08:11:28;94931.34;;;7.04;61.25
12219;BME280;6172;42.646;23.344;2023-03-18T08:13:57;94928.28;;;7.54;61.95
12219;BME280;6172;42.646;23.344;2023-03-18T08:16:24;94924.31;;;8.15;60.08
12219;BME280;6172;42.646;23.344;2023-03-18T08:18:52;94933.31;;;7.87;59.81
12219;BME280;6172;42.646;23.344;2023-03-18T08:21:22;94925.59;;;7.19;62.58
12219;BME280;6172;42.646;23.344;2023-03-18T08:23:53;94933.66;;;6.81;67.98
12219;BME280;6172;42.646;23.344;2023-03-18T08:29:38;94939.44;;;8.20;61.49
12219;BME280;6172;42.646;23.344;2023-03-18T08:32:06;94943.63;;;8.52;58.78
12219;BME280;6172;42.646;23.344;2023-03-18T08:34:35;94940.63;;;8.04;60.04
12219;BME280;6172;42.646;23.344;2023-03-18T08:37:02;94935.97;;;8.16;58.71
12219;BME280;6172;42.646;23.344;2023-03-18T08:39:29;94930.22;;;7.40;62.13
12219;BME280;6172;42.646;23.344;2023-03-18T08:41:56;94924.78;;;7.85;62.24
12219;BME280;6172;42.646;23.344;2023-03-18T08:44:24;94931.38;;;7.53;64.17
12219;BME280;6172;42.646;23.344;2023-03-18T08:46:50;94922.84;;;8.00;63.55
12219;BME280;6172;42.646;23.344;2023-03-18T08:49:17;94935.22;;;8.12;59.53
12219;BME280;6172;42.646;23.344;2023-03-18T08:51:46;94935.25;;;7.94;62.58
12219;BME280;6172;42.646;23.344;2023-03-18T08:54:12;94932.75;;;8.56;61.08
12219;BME280;6172;42.646;23.344;2023-03-18T08:56:39;94933.94;;;8.55;58.43
12219;BME280;6172;42.646;23.344;2023-03-18T08:59:07;94936.03;;;9.02;56.82
12219;BME280;6172;42.646;23.344;2023-03-18T09:01:33;94935.72;;;8.82;56.67
12219;BME280;6172;42.646;23.344;2023-03-18T09:04:01;94936.91;;;8.81;56.94
12219;BME280;6172;42.646;23.344;2023-03-18T09:06:28;94937.81;;;9.26;56.14
12219;BME280;6172;42.646;23.344;2023-03-18T09:08:56;94937.69;;;8.78;56.85
12219;BME280;6172;42.646;23.344;2023-03-18T09:11:23;94935.19;;;9.63;53.75
12219;BME280;6172;42.646;23.344;2023-03-18T09:13:51;94934.13;;;9.50;52.27
12219;BME280;6172;42.646;23.344;2023-03-18T09:16:17;94936.97;;;9.39;52.50
12219;BME280;6172;42.646;23.344;2023-03-18T09:18:44;94928.59;;;10.08;50.37
12219;BME280;6172;42.646;23.344;2023-03-18T09:21:13;94938.91;;;10.27;49.96
12219;BME280;6172;42.646;23.344;2023-03-18T09:23:40;94944.88;;;10.15;48.92
12219;BME280;6172;42.646;23.344;2023-03-18T09:26:09;94940.22;;;10.12;46.91
12219;BME280;6172;42.646;23.344;2023-03-18T09:28:36;94929.94;;;10.30;47.54
12219;BME280;6172;42.646;23.344;2023-03-18T09:31:03;94932.63;;;10.67;45.78
12219;BME280;6172;42.646;23.344;2023-03-18T09:33:30;94937.81;;;10.21;44.33
12219;BME280;6172;42.646;23.344;2023-03-18T09:35:57;94934.84;;;10.76;44.21
12219;BME280;6172;42.646;23.344;2023-03-18T09:38:24;94940.66;;;11.08;41.56
12219;BME280;6172;42.646;23.344;2023-03-18T09:41:00;94930.28;;;11.26;41.16
12219;BME280;6172;42.646;23.344;2023-03-18T09:43:39;94929.47;;;10.35;42.05
12219;BME280;6172;42.646;23.344;2023-03-18T09:46:14;94933.38;;;10.68;43.16
12219;BME280;6172;42.646;23.344;2023-03-18T09:49:17;94927.00;;;10.14;43.98
12219;BME280;6172;42.646;23.344;2023-03-18T09:51:59;94924.44;;;10.97;43.46
12219;BME280;6172;42.646;23.344;2023-03-18T09:54:34;94924.91;;;9.84;45.13
12219;BME280;6172;42.646;23.344;2023-03-18T09:57:04;94931.63;;;9.73;44.01
12219;BME280;6172;42.646;23.344;2023-03-18T09:59:41;94942.47;;;9.29;46.97
12219;BME280;6172;42.646;23.344;2023-03-18T10:02:17;94933.81;;;10.32;45.03
12219;BME280;6172;42.646;23.344;2023-03-18T10:04:51;94934.47;;;10.03;43.44
12219;BME280;6172;42.646;23.344;2023-03-18T10:07:22;94942.50;;;9.76;44.07
12219;BME280;6172;42.646;23.344;2023-03-18T10:09:53;94938.13;;;10.30;42.85
12219;BME280;6172;42.646;23.344;2023-03-18T10:12:27;94934.09;;;10.42;42.84
12219;BME280;6172;42.646;23.344;2023-03-18T10:15:03;94938.13;;;10.26;43.09
12219;BME280;6172;42.646;23.344;2023-03-18T10:17:37;94948.22;;;8.73;41.72
12219;BME280;6172;42.646;23.344;2023-03-18T10:20:14;94932.19;;;9.54;42.65
12219;BME280;6172;42.646;23.344;2023-03-18T10:22:57;94933.09;;;9.33;40.85
12219;BME280;6172;42.646;23.344;2023-03-18T10:25:31;94929.47;;;9.98;39.99
12219;BME280;6172;42.646;23.344;2023-03-18T10:28:24;94934.38;;;10.13;36.55
12219;BME280;6172;42.646;23.344;2023-03-18T10:31:03;94927.28;;;9.79;36.58
12219;BME280;6172;42.646;23.344;2023-03-18T10:33:37;94919.66;;;9.60;39.31
12219;BME280;6172;42.646;23.344;2023-03-18T10:36:11;94925.31;;;9.83;38.00
12219;BME280;6172;42.646;23.344;2023-03-18T10:38:42;94922.50;;;9.46;39.51
12219;BME280;6172;42.646;23.344;2023-03-18T10:41:16;94923.66;;;9.96;38.37
12219;BME280;6172;42.646;23.344;2023-03-18T10:43:46;94919.72;;;9.53;39.08
12219;BME280;6172;42.646;23.344;2023-03-18T10:46:18;94923.69;;;9.45;38.78
12219;BME280;6172;42.646;23.344;2023-03-18T10:48:54;94927.56;;;9.47;39.04
12219;BME280;6172;42.646;23.344;2023-03-18T10:51:36;94931.69;;;9.15;37.94
12219;BME280;6172;42.646;23.344;2023-03-18T10:54:10;94923.69;;;9.45;39.09
12219;BME280;6172;42.646;23.344;2023-03-18T10:56:38;94912.41;;;9.94;37.52
12219;BME280;6172;42.646;23.344;2023-03-18T10:59:11;94917.91;;;9.39;38.37
12219;BME280;6172;42.646;23.344;2023-03-18T11:01:41;94914.00;;;8.82;39.51
12219;BME280;6172;42.646;23.344;2023-03-18T11:04:12;94912.25;;;9.13;38.98
12219;BME280;6172;42.646;23.344;2023-03-18T11:06:42;94906.63;;;9.41;38.76
12219;BME280;6172;42.646;23.344;2023-03-18T11:09:15;94903.34;;;9.60;38.56
12219;BME280;6172;42.646;23.344;2023-03-18T11:11:43;94913.38;;;9.19;39.40
12219;BME280;6172;42.646;23.344;2023-03-18T11:14:13;94910.88;;;8.84;39.48
12219;BME280;6172;42.646;23.344;2023-03-18T11:16:48;94906.47;;;9.07;39.34
12219;BME280;6172;42.646;23.344;2023-03-18T11:19:28;94912.25;;;9.16;39.90
12219;BME280;6172;42.646;23.344;2023-03-18T11:22:17;94905.66;;;8.38;38.72
12219;BME280;6172;42.646;23.344;2023-03-18T11:24:44;94913.16;;;7.81;39.35
12219;BME280;6172;42.646;23.344;2023-03-18T11:27:33;94905.06;;;7.32;41.12
12219;BME280;6172;42.646;23.344;2023-03-18T11:30:08;94913.56;;;7.34;42.58
12219;BME280;6172;42.646;23.344;2023-03-18T11:32:49;94912.38;;;7.98;42.35
12219;BME280;6172;42.646;23.344;2023-03-18T11:35:19;94902.53;;;8.50;40.00
12219;BME280;6172;42.646;23.344;2023-03-18T11:37:49;94892.03;;;9.17;39.55
12219;BME280;6172;42.646;23.344;2023-03-18T11:40:19;94903.72;;;9.11;39.34
12219;BME280;6172;42.646;23.344;2023-03-18T11:42:53;94899.19;;;9.89;37.19
12219;BME280;6172;42.646;23.344;2023-03-18T11:45:30;94893.63;;;10.03;36.32
12219;BME280;6172;42.646;23.344;2023-03-18T11:48:01;94885.75;;;11.06;35.20
12219;BME280;6172;42.646;23.344;2023-03-18T11:50:36;94891.63;;;10.44;36.78
12219;BME280;6172;42.646;23.344;2023-03-18T11:53:09;94900.44;;;9.37;40.82
12219;BME280;6172;42.646;23.344;2023-03-18T11:55:42;94914.72;;;8.90;39.89
12219;BME280;6172;42.646;23.344;2023-03-18T12:01:24;94892.97;;;10.29;37.36
12219;BME280;6172;42.646;23.344;2023-03-18T12:04:20;94893.28;;;10.68;35.73
12219;BME280;6172;42.646;23.344;2023-03-18T12:07:07;94889.13;;;10.23;36.72
12219;BME280;6172;42.646;23.344;2023-03-18T12:09:40;94902.47;;;9.70;37.02
12219;BME280;6172;42.646;23.344;2023-03-18T12:12:24;94895.06;;;9.74;37.73
12219;BME280;6172;42.646;23.344;2023-03-18T12:15:01;94890.06;;;10.09;39.01
12219;BME280;6172;42.646;23.344;2023-03-18T12:17:36;94890.69;;;10.24;38.73
12219;BME280;6172;42.646;23.344;2023-03-18T12:20:35;94903.06;;;10.32;38.67
12219;BME280;6172;42.646;23.344;2023-03-18T12:23:17;94900.31;;;10.35;38.70
12219;BME280;6172;42.646;23.344;2023-03-18T12:26:01;94893.72;;;9.52;40.09
12219;BME280;6172;42.646;23.344;2023-03-18T12:28:41;94901.50;;;7.91;41.56
12219;BME280;6172;42.646;23.344;2023-03-18T12:31:32;94910.56;;;8.71;41.17
12219;BME280;6172;42.646;23.344;2023-03-18T12:34:15;94894.41;;;9.08;39.88
12219;BME280;6172;42.646;23.344;2023-03-18T12:37:02;94891.50;;;8.82;39.78
12219;BME280;6172;42.646;23.344;2023-03-18T12:39:50;94893.31;;;8.13;39.94
12219;BME280;6172;42.646;23.344;2023-03-18T12:42:31;94896.53;;;7.44;41.84
12219;BME280;6172;42.646;23.344;2023-03-18T12:45:08;94890.25;;;8.00;41.63
12219;BME280;6172;42.646;23.344;2023-03-18T12:47:38;94889.72;;;8.47;41.54
12219;BME280;6172;42.646;23.344;2023-03-18T12:50:14;94884.03;;;8.89;41.09
12219;BME280;6172;42.646;23.344;2023-03-18T12:52:47;94873.31;;;9.26;40.03
12219;BME280;6172;42.646;23.344;2023-03-18T12:55:19;94886.19;;;8.54;41.56
12219;BME280;6172;42.646;23.344;2023-03-18T12:57:49;94893.00;;;7.86;41.41
12219;BME280;6172;42.646;23.344;2023-03-18T13:00:23;94891.72;;;8.22;41.42
12219;BME280;6172;42.646;23.344;2023-03-18T13:02:58;94893.00;;;7.86;41.86
12219;BME280;6172;42.646;23.344;2023-03-18T13:05:39;94884.91;;;7.40;42.58
12219;BME280;6172;42.646;23.344;2023-03-18T13:11:50;94887.94;;;7.91;40.51
12219;BME280;6172;42.646;23.344;2023-03-18T13:14:23;94881.97;;;8.46;40.35
12219;BME280;6172;42.646;23.344;2023-03-18T13:16:52;94885.03;;;8.55;40.32
12219;BME280;6172;42.646;23.344;2023-03-18T13:19:21;94881.59;;;8.47;40.72
12219;BME280;6172;42.646;23.344;2023-03-18T13:21:53;94876.28;;;8.08;39.48
12219;BME280;6172;42.646;23.344;2023-03-18T13:24:44;94894.19;;;7.78;39.11
12219;BME280;6172;42.646;23.344;2023-03-18T13:30:26;94884.91;;;7.30;40.05
12219;BME280;6172;42.646;23.344;2023-03-18T13:33:27;94888.41;;;7.23;40.12